createdAt,value
2022-11-20T00:02:37.539Z,67.35
2022-11-20T00:07:42.286Z,67.69
2022-11-20T00:12:45.542Z,66.98
2022-11-20T00:17:49.075Z,67.33
2022-11-20T00:22:53.966Z,67.69
2022-11-20T00:27:57.426Z,67.16
2022-11-20T00:33:00.746Z,67.39
2022-11-20T00:38:05.363Z,67.35
2022-11-20T00:43:08.569Z,67.95
2022-11-20T00:48:12.074Z,68.23
2022-11-20T00:53:16.716Z,68.00
2022-11-20T00:58:20.169Z,67.87
2022-11-20T01:03:26.997Z,67.36
2022-11-20T01:08:34.057Z,67.06
2022-11-20T01:13:40.688Z,67.29
2022-11-20T01:18:45.404Z,67.20
2022-11-20T01:23:51.119Z,66.75
2022-11-20T01:28:55.719Z,66.50
2022-11-20T01:34:01.807Z,66.65
2022-11-20T01:39:09.260Z,66.89
2022-11-20T01:44:16.245Z,66.79
2022-11-20T01:49:22.599Z,66.90
2022-11-20T01:54:34.432Z,67.02
2022-11-20T01:59:44.256Z,66.64
2022-11-20T02:04:48.701Z,66.65
2022-11-20T02:09:58.540Z,66.36
2022-11-20T02:15:02.392Z,65.51
2022-11-20T02:20:07.235Z,66.38
2022-11-20T02:25:12.805Z,66.37
2022-11-20T02:30:16.531Z,66.20
2022-11-20T02:35:43.449Z,66.64
2022-11-20T02:40:52.671Z,66.07
2022-11-20T02:45:58.557Z,66.06
2022-11-20T02:51:01.964Z,66.13
2022-11-20T02:56:07.680Z,66.42
2022-11-20T03:01:11.034Z,65.25
2022-11-20T03:06:14.908Z,65.57
2022-11-20T03:11:19.639Z,65.33
2022-11-20T03:16:23.776Z,65.48
2022-11-20T03:21:27.140Z,65.61
2022-11-20T03:26:32.108Z,65.80
2022-11-20T03:31:37.930Z,65.15
2022-11-20T03:36:42.163Z,65.28
2022-11-20T03:41:46.872Z,65.41
2022-11-20T03:46:50.063Z,65.49
2022-11-20T03:51:53.272Z,65.15
2022-11-20T03:56:58.150Z,65.39
2022-11-20T04:02:01.404Z,65.01
2022-11-20T04:07:05.069Z,65.03
2022-11-20T04:12:09.729Z,65.02
2022-11-20T04:17:13.220Z,65.44
2022-11-20T04:22:16.588Z,65.32
2022-11-20T04:27:21.311Z,64.73
2022-11-20T04:32:24.576Z,64.53
2022-11-20T04:37:28.020Z,64.55
2022-11-20T04:42:32.590Z,64.24
2022-11-20T04:47:35.950Z,64.64
2022-11-20T04:52:39.193Z,64.21
2022-11-20T04:57:43.883Z,64.06
2022-11-20T05:02:47.069Z,64.01
2022-11-20T05:07:50.484Z,63.81
2022-11-20T05:12:55.454Z,64.26
2022-11-20T05:17:58.871Z,64.14
2022-11-20T05:23:02.231Z,64.18
2022-11-20T05:28:08.181Z,64.37
2022-11-20T05:33:11.580Z,63.95
2022-11-20T05:38:15.079Z,64.66
2022-11-20T05:43:19.672Z,64.22
2022-11-20T05:48:23.304Z,63.76
2022-11-20T05:53:27.783Z,64.21
2022-11-20T05:58:33.750Z,63.98
2022-11-20T06:03:37.176Z,63.65
2022-11-20T06:08:40.681Z,63.87
2022-11-20T06:13:45.678Z,64.13
2022-11-20T06:18:50.157Z,64.12
2022-11-20T06:23:55.508Z,64.25
2022-11-20T06:29:00.122Z,64.74
2022-11-20T06:34:03.749Z,64.54
2022-11-20T06:39:06.982Z,63.86
2022-11-20T06:44:11.792Z,64.37
2022-11-20T06:49:14.888Z,63.33
2022-11-20T06:54:18.056Z,64.19
2022-11-20T06:59:23.115Z,63.46
2022-11-20T07:04:26.702Z,63.56
2022-11-20T07:09:30.127Z,63.39
2022-11-20T07:14:34.780Z,63.59
2022-11-20T07:19:37.955Z,63.11
2022-11-20T07:24:45.831Z,62.88
2022-11-20T07:29:51.057Z,62.26
2022-11-20T07:34:54.159Z,61.51
2022-11-20T07:39:57.613Z,61.73
2022-11-20T07:45:02.338Z,61.93
2022-11-20T07:50:07.428Z,62.29
2022-11-20T07:55:11.822Z,62.16
2022-11-20T08:00:18.443Z,61.72
2022-11-20T08:05:21.646Z,61.66
2022-11-20T08:10:25.146Z,61.46
2022-11-20T08:15:29.835Z,60.97
2022-11-20T08:20:33.337Z,60.66
2022-11-20T08:25:38.514Z,61.06
2022-11-20T08:30:43.154Z,60.80
2022-11-20T08:35:46.390Z,60.73
2022-11-20T08:41:03.568Z,60.45
2022-11-20T08:46:08.309Z,60.78
2022-11-20T08:51:12.089Z,61.68
2022-11-20T08:56:15.362Z,60.63
2022-11-20T09:01:20.311Z,60.94
2022-11-20T09:06:23.389Z,60.08
2022-11-20T09:11:27.970Z,59.85
2022-11-20T09:16:32.860Z,60.34
2022-11-20T09:21:36.055Z,60.14
2022-11-20T09:26:40.006Z,60.90
2022-11-20T09:31:44.854Z,60.99
2022-11-20T09:36:48.199Z,59.97
2022-11-20T09:42:07.001Z,60.06
2022-11-20T09:47:19.568Z,60.24
2022-11-20T09:52:30.257Z,60.49
2022-11-20T09:57:38.957Z,60.04
2022-11-20T10:02:49.355Z,60.09
2022-11-20T10:07:58.090Z,60.05
2022-11-20T10:13:18.054Z,60.05
2022-11-20T10:18:35.841Z,60.22
2022-11-20T10:24:09.635Z,59.94
2022-11-20T10:29:15.461Z,60.84
2022-11-20T10:34:29.749Z,61.07
2022-11-20T10:39:41.030Z,61.05
2022-11-20T10:45:06.714Z,61.53
2022-11-20T10:50:22.406Z,61.13
2022-11-20T10:55:32.518Z,61.56
2022-11-20T11:00:36.572Z,61.25
2022-11-20T11:05:45.521Z,61.07
2022-11-20T11:10:54.073Z,60.98
2022-11-20T11:15:58.067Z,60.83
2022-11-20T11:21:05.010Z,60.51
2022-11-20T11:26:20.296Z,60.37
2022-11-20T11:31:29.876Z,59.66
2022-11-20T11:36:35.691Z,59.50
2022-11-20T11:41:39.394Z,59.49
2022-11-20T11:46:47.100Z,59.38
2022-11-20T11:52:04.623Z,59.52
2022-11-20T11:57:17.120Z,59.20
2022-11-20T12:02:33.596Z,58.92
2022-11-20T12:07:47.699Z,59.53
2022-11-20T12:12:57.157Z,59.37
2022-11-20T12:18:00.623Z,59.74
2022-11-20T12:23:16.863Z,59.65
2022-11-20T12:28:42.394Z,59.91
2022-11-20T12:34:08.310Z,59.96
2022-11-20T12:39:43.116Z,59.75
2022-11-20T12:45:21.062Z,59.97
2022-11-20T12:50:42.888Z,59.85
2022-11-20T12:56:08.443Z,60.01
2022-11-20T13:01:43.946Z,60.29
2022-11-20T13:06:47.580Z,60.07
2022-11-20T13:12:00.756Z,59.79
2022-11-20T13:17:11.980Z,60.08
2022-11-20T13:22:26.276Z,60.08
2022-11-20T13:27:32.347Z,60.08
2022-11-20T13:32:35.807Z,59.80
2022-11-20T13:37:40.701Z,60.65
2022-11-20T13:42:47.868Z,60.25
2022-11-20T13:47:52.041Z,60.37
2022-11-20T13:53:03.172Z,60.37
2022-11-20T13:58:34.277Z,60.68
2022-11-20T14:04:04.414Z,60.39
2022-11-20T14:09:02.307Z,60.17
2022-11-20T14:14:17.530Z,60.54
2022-11-20T14:19:32.740Z,60.39
2022-11-20T14:24:36.617Z,60.44
2022-11-20T14:29:42.630Z,60.27
2022-11-20T14:34:48.545Z,60.69
2022-11-20T14:39:54.532Z,60.52
2022-11-20T14:45:00.880Z,60.49
2022-11-20T14:50:09.771Z,60.15
2022-11-20T14:55:26.820Z,60.48
2022-11-20T15:00:33.841Z,60.37
2022-11-20T15:05:51.924Z,60.20
2022-11-20T15:10:56.335Z,60.50
2022-11-20T15:16:02.908Z,60.33
2022-11-20T15:21:12.770Z,60.11
2022-11-20T15:26:20.230Z,60.43
2022-11-20T15:31:26.344Z,60.37
2022-11-20T15:36:29.779Z,60.41
2022-11-20T15:41:33.268Z,60.21
2022-11-20T15:46:43.462Z,60.08
2022-11-20T15:51:48.952Z,59.68
2022-11-20T15:56:54.289Z,60.23
2022-11-20T16:02:00.511Z,60.28
2022-11-20T16:07:04.189Z,60.10
2022-11-20T16:12:07.934Z,60.49
2022-11-20T16:17:13.258Z,60.29
2022-11-20T16:22:16.843Z,60.09
2022-11-20T16:27:20.280Z,59.92
2022-11-20T16:32:25.558Z,60.09
2022-11-20T16:37:28.899Z,60.14
2022-11-20T16:42:36.000Z,60.38
2022-11-20T16:47:40.787Z,60.06
2022-11-20T16:52:43.694Z,59.80
2022-11-20T16:57:46.851Z,60.30
2022-11-20T17:02:51.543Z,60.16
2022-11-20T17:07:54.996Z,60.32
2022-11-20T17:12:58.218Z,60.85
2022-11-20T17:18:04.021Z,60.47
2022-11-20T17:23:07.214Z,60.20
2022-11-20T17:28:10.542Z,60.25
2022-11-20T17:33:15.207Z,60.42
2022-11-20T17:38:18.751Z,60.13
2022-11-20T17:43:22.001Z,59.85
2022-11-20T17:48:29.182Z,59.57
2022-11-20T17:53:35.820Z,59.73
2022-11-20T17:58:41.367Z,59.81
2022-11-20T18:03:46.426Z,59.76
2022-11-20T18:08:50.763Z,60.24
2022-11-20T18:14:12.663Z,60.34
2022-11-20T18:19:19.649Z,60.09
2022-11-20T18:24:23.731Z,59.90
2022-11-20T18:29:28.252Z,59.70
2022-11-20T18:34:33.629Z,59.65
2022-11-20T18:39:38.664Z,60.07
2022-11-20T18:44:54.872Z,60.02
2022-11-20T18:50:01.428Z,60.46
2022-11-20T18:55:08.161Z,59.99
2022-11-20T19:00:11.915Z,60.02
2022-11-20T19:05:17.121Z,60.55
2022-11-20T19:10:21.580Z,60.23
2022-11-20T19:15:24.961Z,60.23
2022-11-20T19:20:29.604Z,60.16
2022-11-20T19:25:37.874Z,60.66
2022-11-20T19:30:42.149Z,60.43
2022-11-20T19:35:46.893Z,60.44
2022-11-20T19:40:50.344Z,60.74
2022-11-20T19:45:53.913Z,60.46
2022-11-20T19:50:58.467Z,60.62
2022-11-20T19:56:02.623Z,60.28
2022-11-20T20:01:10.338Z,60.55
2022-11-20T20:06:16.991Z,60.40
2022-11-20T20:11:22.009Z,60.35
2022-11-20T20:16:28.366Z,60.64
2022-11-20T20:21:34.404Z,60.51
2022-11-20T20:26:38.022Z,60.68
2022-11-20T20:31:41.702Z,60.54
2022-11-20T20:36:46.542Z,60.70
2022-11-20T20:41:49.756Z,59.31
2022-11-20T20:46:53.484Z,60.28
2022-11-20T20:51:58.347Z,60.59
2022-11-20T20:57:01.683Z,60.28
2022-11-20T21:02:05.389Z,60.13
2022-11-20T21:07:11.203Z,60.32
2022-11-20T21:12:14.784Z,60.27
2022-11-20T21:17:18.269Z,60.03
2022-11-20T21:22:23.119Z,59.97
2022-11-20T21:27:26.634Z,60.31
2022-11-20T21:32:29.812Z,60.21
2022-11-20T21:37:39.637Z,60.06
2022-11-20T21:42:44.126Z,60.20
2022-11-20T21:47:50.475Z,59.89
2022-11-20T21:52:55.045Z,59.91
2022-11-20T21:57:58.610Z,60.14
2022-11-20T22:03:01.766Z,59.99
2022-11-20T22:08:07.285Z,60.10
2022-11-20T22:13:27.887Z,60.31
2022-11-20T22:18:31.388Z,60.46
2022-11-20T22:23:36.457Z,60.81
2022-11-20T22:28:40.520Z,60.73
2022-11-20T22:33:43.813Z,61.04
2022-11-20T22:38:49.227Z,60.78
2022-11-20T22:43:56.426Z,60.89
2022-11-20T22:49:01.288Z,60.99
2022-11-20T22:54:06.527Z,61.04
2022-11-20T22:59:10.125Z,60.79
2022-11-20T23:04:13.479Z,60.82
2022-11-20T23:09:18.429Z,60.85
2022-11-20T23:14:27.455Z,61.30
2022-11-20T23:19:31.023Z,61.22
2022-11-20T23:24:35.587Z,61.23
2022-11-20T23:29:38.776Z,60.79
2022-11-20T23:34:41.942Z,61.26
2022-11-20T23:39:46.641Z,61.41
2022-11-20T23:44:49.979Z,61.16
2022-11-20T23:49:53.269Z,61.05
2022-11-20T23:54:57.823Z,61.27
